createdAt,value
2023-04-25T00:02:23.411Z,101160.03
2023-04-25T00:05:08.819Z,101158.63
2023-04-25T00:07:54.298Z,101152.00
2023-04-25T00:10:39.145Z,101141.44
2023-04-25T00:13:24.384Z,101154.34
2023-04-25T00:16:09.477Z,101161.88
2023-04-25T00:18:54.905Z,101159.94
2023-04-25T00:21:41.548Z,101142.56
2023-04-25T00:24:27.075Z,101145.66
2023-04-25T00:27:12.200Z,101153.56
2023-04-25T00:29:57.149Z,101152.28
2023-04-25T00:32:42.568Z,101148.91
2023-04-25T00:35:27.694Z,101155.09
2023-04-25T00:38:12.979Z,101159.31
2023-04-25T00:40:58.735Z,101151.00
2023-04-25T00:43:46.686Z,101143.16
2023-04-25T00:46:32.387Z,101167.06
2023-04-25T00:49:17.959Z,101150.47
2023-04-25T00:52:03.324Z,101172.13
2023-04-25T00:54:48.739Z,101175.72
2023-04-25T00:57:34.147Z,101160.47
2023-04-25T01:00:20.525Z,101172.31
2023-04-25T01:03:06.083Z,101169.16
2023-04-25T01:05:51.843Z,101172.78
2023-04-25T01:08:39.271Z,101178.34
2023-04-25T01:11:24.537Z,101185.56
2023-04-25T01:14:09.825Z,101183.88
2023-04-25T01:16:55.583Z,101191.47
2023-04-25T01:19:41.219Z,101193.06
2023-04-25T01:22:26.785Z,101194.69
2023-04-25T01:25:11.936Z,101192.28
2023-04-25T01:27:57.951Z,101180.97
2023-04-25T01:30:43.661Z,101174.22
2023-04-25T01:33:28.827Z,101187.78
2023-04-25T01:36:15.582Z,101185.53
2023-04-25T01:39:01.702Z,101191.72
2023-04-25T01:41:48.215Z,101204.81
2023-04-25T01:44:33.512Z,101216.38
2023-04-25T01:47:18.532Z,101185.06
2023-04-25T01:50:05.115Z,101207.41
2023-04-25T01:52:50.659Z,101196.38
2023-04-25T01:55:35.725Z,101210.41
2023-04-25T01:58:21.272Z,101208.16
2023-04-25T02:01:06.133Z,101210.59
2023-04-25T02:03:51.794Z,101209.88
2023-04-25T02:06:37.247Z,101204.97
2023-04-25T02:09:22.491Z,101208.53
2023-04-25T02:12:10.735Z,101208.72
2023-04-25T02:14:58.685Z,101213.25
2023-04-25T02:17:43.903Z,101221.00
2023-04-25T02:20:30.971Z,101220.16
2023-04-25T02:23:20.164Z,101225.69
2023-04-25T02:26:05.835Z,101225.56
2023-04-25T02:28:52.383Z,101224.84
2023-04-25T02:31:37.460Z,101230.16
2023-04-25T02:34:22.850Z,101221.69
2023-04-25T02:37:07.827Z,101228.91
2023-04-25T02:39:52.785Z,101227.22
2023-04-25T02:42:38.017Z,101224.00
2023-04-25T02:45:23.375Z,101225.19
2023-04-25T02:48:09.151Z,101232.75
2023-04-25T02:50:54.863Z,101240.66
2023-04-25T02:53:40.140Z,101232.97
2023-04-25T02:56:27.258Z,101226.31
2023-04-25T02:59:12.915Z,101230.97
2023-04-25T03:01:58.293Z,101236.13
2023-04-25T03:04:43.955Z,101229.59
2023-04-25T03:07:29.149Z,101238.31
2023-04-25T03:10:14.271Z,101237.56
2023-04-25T03:12:59.478Z,101245.41
2023-04-25T03:15:50.731Z,101223.38
2023-04-25T03:18:36.500Z,101246.22
2023-04-25T03:21:21.727Z,101250.72
2023-04-25T03:24:07.169Z,101251.66
2023-04-25T03:26:52.330Z,101260.13
2023-04-25T03:29:37.293Z,101255.22
2023-04-25T03:32:22.442Z,101256.97
2023-04-25T03:35:08.161Z,101236.44
2023-04-25T03:37:53.506Z,101260.63
2023-04-25T03:40:38.806Z,101230.25
2023-04-25T03:43:23.821Z,101265.34
2023-04-25T03:46:09.238Z,101261.00
2023-04-25T03:48:54.556Z,101268.66
2023-04-25T03:51:39.977Z,101270.44
2023-04-25T03:54:25.092Z,101274.03
2023-04-25T03:57:10.443Z,101274.19
2023-04-25T03:59:56.052Z,101270.31
2023-04-25T04:02:43.127Z,101280.41
2023-04-25T04:05:30.202Z,101283.03
2023-04-25T04:08:15.236Z,101264.44
2023-04-25T04:11:00.340Z,101292.72
2023-04-25T04:13:45.729Z,101293.63
2023-04-25T04:16:32.521Z,101296.31
2023-04-25T04:19:19.201Z,101299.97
2023-04-25T04:22:04.399Z,101306.81
2023-04-25T04:24:50.940Z,101295.72
2023-04-25T04:27:36.538Z,101307.03
2023-04-25T04:30:26.387Z,101313.28
2023-04-25T04:33:12.310Z,101315.84
2023-04-25T04:35:57.811Z,101297.22
2023-04-25T04:38:43.359Z,101317.75
2023-04-25T04:41:28.227Z,101318.16
2023-04-25T04:44:13.473Z,101312.16
2023-04-25T04:46:58.874Z,101345.47
2023-04-25T04:49:44.147Z,101352.59
2023-04-25T04:52:29.006Z,101365.63
2023-04-25T04:55:14.037Z,101341.06
2023-04-25T04:57:59.068Z,101346.38
2023-04-25T05:00:44.369Z,101378.81
2023-04-25T05:03:30.021Z,101383.09
2023-04-25T05:06:15.190Z,101400.47
2023-04-25T05:09:00.893Z,101400.41
2023-04-25T05:11:46.015Z,101391.59
2023-04-25T05:14:31.371Z,101399.16
2023-04-25T05:17:16.678Z,101387.41
2023-04-25T05:20:01.587Z,101395.06
2023-04-25T05:22:46.901Z,101391.78
2023-04-25T05:25:31.687Z,101400.13
2023-04-25T05:28:16.778Z,101397.56
2023-04-25T05:31:01.740Z,101398.38
2023-04-25T05:33:46.750Z,101389.81
2023-04-25T05:36:33.456Z,101403.34
2023-04-25T05:39:18.536Z,101412.59
2023-04-25T05:42:04.770Z,101415.31
2023-04-25T05:44:50.018Z,101419.75
2023-04-25T05:47:35.396Z,101422.59
2023-04-25T05:50:20.551Z,101417.34
2023-04-25T05:53:06.862Z,101426.78
2023-04-25T05:55:52.064Z,101435.22
2023-04-25T05:58:37.007Z,101432.78
2023-04-25T06:01:23.432Z,101447.13
2023-04-25T06:04:08.769Z,101443.56
2023-04-25T06:06:53.893Z,101449.28
2023-04-25T06:09:40.039Z,101450.22
2023-04-25T06:12:25.412Z,101451.66
2023-04-25T06:15:24.449Z,101442.81
2023-04-25T06:18:13.090Z,101447.53
2023-04-25T06:20:58.063Z,101446.56
2023-04-25T06:23:43.034Z,101458.53
2023-04-25T06:26:28.004Z,101459.56
2023-04-25T06:29:13.339Z,101462.06
2023-04-25T06:31:58.446Z,101466.06
2023-04-25T06:34:43.699Z,101461.84
2023-04-25T06:37:28.967Z,101472.91
2023-04-25T06:40:14.064Z,101469.16
2023-04-25T06:42:59.273Z,101463.81
2023-04-25T06:45:46.349Z,101473.97
2023-04-25T06:48:32.882Z,101445.53
2023-04-25T06:51:17.855Z,101469.00
2023-04-25T06:54:05.041Z,101466.91
2023-04-25T06:56:50.820Z,101462.22
2023-04-25T06:59:35.875Z,101462.09
2023-04-25T07:02:22.655Z,101468.16
2023-04-25T07:05:08.408Z,101474.75
2023-04-25T07:07:53.764Z,101486.63
2023-04-25T07:10:39.160Z,101487.34
2023-04-25T07:13:24.649Z,101478.63
2023-04-25T07:16:09.993Z,101480.72
2023-04-25T07:18:55.393Z,101489.09
2023-04-25T07:21:40.599Z,101486.09
2023-04-25T07:24:25.624Z,101492.84
2023-04-25T07:27:10.854Z,101489.19
2023-04-25T07:29:56.394Z,101478.13
2023-04-25T07:32:41.763Z,101466.09
2023-04-25T07:35:27.016Z,101488.81
2023-04-25T07:38:12.327Z,101495.56
2023-04-25T07:40:57.574Z,101492.69
2023-04-25T07:43:42.942Z,101490.81
2023-04-25T07:46:28.076Z,101491.56
2023-04-25T07:49:13.497Z,101485.38
2023-04-25T07:51:58.523Z,101507.97
2023-04-25T07:54:43.487Z,101507.88
2023-04-25T07:57:30.142Z,101507.06
2023-04-25T08:00:16.116Z,101517.88
2023-04-25T08:03:01.388Z,101513.34
2023-04-25T08:05:47.145Z,101524.97
2023-04-25T08:08:32.080Z,101538.22
2023-04-25T08:11:17.236Z,101541.38
2023-04-25T08:14:02.746Z,101534.66
2023-04-25T08:16:47.711Z,101540.63
2023-04-25T08:19:32.898Z,101546.28
2023-04-25T08:22:17.823Z,101555.41
2023-04-25T08:25:04.728Z,101544.03
2023-04-25T08:27:49.645Z,101547.38
2023-04-25T08:30:35.106Z,101552.22
2023-04-25T08:33:20.814Z,101543.03
2023-04-25T08:36:05.773Z,101560.94
2023-04-25T08:38:52.035Z,101549.28
2023-04-25T08:41:39.539Z,101553.25
2023-04-25T08:44:25.623Z,101548.22
2023-04-25T08:47:10.845Z,101552.66
2023-04-25T08:49:56.932Z,101551.75
2023-04-25T08:52:46.785Z,101562.91
2023-04-25T08:55:32.693Z,101557.97
2023-04-25T08:58:19.645Z,101561.00
2023-04-25T09:01:04.889Z,101565.63
2023-04-25T09:03:50.425Z,101566.00
2023-04-25T09:06:35.852Z,101569.69
2023-04-25T09:09:21.638Z,101562.09
2023-04-25T09:12:06.715Z,101564.88
2023-04-25T09:15:05.483Z,101567.63
2023-04-25T09:17:57.261Z,101569.75
2023-04-25T09:20:56.514Z,101572.69
2023-04-25T09:23:48.334Z,101573.78
2023-04-25T09:26:33.733Z,101569.72
2023-04-25T09:29:19.046Z,101556.34
2023-04-25T09:32:16.554Z,101562.38
2023-04-25T09:35:01.925Z,101565.38
2023-04-25T09:37:46.911Z,101569.41
2023-04-25T09:40:32.224Z,101570.69
2023-04-25T09:43:22.005Z,101561.69
2023-04-25T09:46:12.290Z,101563.00
2023-04-25T09:48:57.639Z,101569.38
2023-04-25T09:51:42.637Z,101562.00
2023-04-25T09:54:27.738Z,101561.31
2023-04-25T09:57:25.073Z,101560.91
2023-04-25T10:00:13.669Z,101553.03
2023-04-25T10:03:02.313Z,101556.31
2023-04-25T10:05:50.268Z,101559.59
2023-04-25T10:08:39.322Z,101555.50
2023-04-25T10:11:27.121Z,101562.50
2023-04-25T10:14:13.995Z,101564.72
2023-04-25T10:16:59.951Z,101568.38
2023-04-25T10:19:44.877Z,101573.53
2023-04-25T10:22:43.588Z,101575.69
2023-04-25T10:25:28.892Z,101551.59
2023-04-25T10:28:14.072Z,101574.88
2023-04-25T10:31:05.222Z,101569.41
2023-04-25T10:33:50.735Z,101563.63
2023-04-25T10:36:38.319Z,101580.16
2023-04-25T10:39:27.950Z,101576.72
2023-04-25T10:42:13.166Z,101581.50
2023-04-25T10:45:08.495Z,101567.13
2023-04-25T10:47:53.589Z,101579.72
2023-04-25T10:50:40.807Z,101582.13
2023-04-25T10:53:26.215Z,101584.03
2023-04-25T10:56:24.516Z,101584.00
2023-04-25T10:59:11.978Z,101568.25
2023-04-25T11:01:57.205Z,101561.06
2023-04-25T11:04:42.706Z,101572.16
2023-04-25T11:08:07.930Z,101573.28
2023-04-25T11:10:53.593Z,101570.22
2023-04-25T11:13:38.733Z,101565.66
2023-04-25T11:16:28.378Z,101571.50
2023-04-25T11:19:14.022Z,101570.88
2023-04-25T11:22:00.915Z,101572.25
2023-04-25T11:24:46.636Z,101558.13
2023-04-25T11:27:31.899Z,101553.81
2023-04-25T11:30:18.186Z,101546.06
2023-04-25T11:33:04.388Z,101555.38
2023-04-25T11:35:49.535Z,101556.47
2023-04-25T11:38:35.394Z,101544.72
2023-04-25T11:41:21.260Z,101562.66
2023-04-25T11:44:06.768Z,101562.06
2023-04-25T11:46:51.799Z,101553.00
2023-04-25T11:49:37.032Z,101564.81
2023-04-25T11:52:21.939Z,101550.81
2023-04-25T11:55:09.911Z,101561.44
2023-04-25T11:57:56.262Z,101552.72
2023-04-25T12:00:50.157Z,101560.94
2023-04-25T12:03:47.295Z,101568.38
2023-04-25T12:06:32.835Z,101571.78
2023-04-25T12:09:31.882Z,101570.81
2023-04-25T12:12:17.405Z,101568.25
2023-04-25T12:15:19.883Z,101566.28
2023-04-25T12:18:05.285Z,101560.28
2023-04-25T12:20:50.725Z,101567.88
2023-04-25T12:23:39.820Z,101548.47
2023-04-25T12:26:26.432Z,101562.72
2023-04-25T12:29:22.321Z,101571.47
2023-04-25T12:32:07.575Z,101576.03
2023-04-25T12:34:52.962Z,101576.97
2023-04-25T12:37:37.998Z,101575.53
2023-04-25T12:40:22.986Z,101578.19
2023-04-25T12:43:08.129Z,101572.38
2023-04-25T12:45:55.117Z,101566.91
2023-04-25T12:48:40.294Z,101586.31
2023-04-25T12:51:26.041Z,101579.66
2023-04-25T12:54:11.580Z,101585.13
2023-04-25T12:56:57.276Z,101586.69
2023-04-25T12:59:42.533Z,101564.69
2023-04-25T13:02:27.595Z,101594.34
2023-04-25T13:05:13.621Z,101592.94
2023-04-25T13:07:58.864Z,101594.34
2023-04-25T13:10:43.808Z,101595.38
2023-04-25T13:13:29.521Z,101595.97
2023-04-25T13:16:15.143Z,101585.66
2023-04-25T13:19:00.845Z,101577.94
2023-04-25T13:21:45.979Z,101587.41
2023-04-25T13:24:30.934Z,101602.63
2023-04-25T13:27:16.096Z,101602.94
2023-04-25T13:30:05.605Z,101591.69
2023-04-25T13:32:51.011Z,101596.31
2023-04-25T13:35:37.982Z,101603.53
2023-04-25T13:38:24.628Z,101601.59
2023-04-25T13:41:11.430Z,101611.28
2023-04-25T13:43:56.946Z,101601.53
2023-04-25T13:46:47.105Z,101605.06
2023-04-25T13:49:33.052Z,101606.38
2023-04-25T13:52:17.852Z,101610.88
2023-04-25T13:55:04.795Z,101606.47
2023-04-25T13:57:50.358Z,101591.53
2023-04-25T14:00:40.444Z,101606.50
2023-04-25T14:03:26.892Z,101622.44
2023-04-25T14:06:13.488Z,101611.13
2023-04-25T14:08:58.798Z,101614.94
2023-04-25T14:11:44.021Z,101620.13
2023-04-25T14:14:29.200Z,101626.25
2023-04-25T14:17:14.412Z,101614.19
2023-04-25T14:19:59.493Z,101608.00
2023-04-25T14:22:44.721Z,101612.38
2023-04-25T14:25:31.257Z,101613.66
2023-04-25T14:28:16.619Z,101599.69
2023-04-25T14:31:01.834Z,101591.56
2023-04-25T14:33:47.030Z,101612.81
2023-04-25T14:36:33.172Z,101605.47
2023-04-25T14:39:19.269Z,101608.66
2023-04-25T14:42:04.795Z,101606.22
2023-04-25T14:44:49.874Z,101593.03
2023-04-25T14:47:38.476Z,101609.13
2023-04-25T14:50:23.716Z,101612.22
2023-04-25T14:53:08.963Z,101608.53
2023-04-25T14:55:54.682Z,101612.13
2023-04-25T14:58:41.364Z,101601.28
2023-04-25T15:01:27.016Z,101598.88
2023-04-25T15:04:13.539Z,101589.25
2023-04-25T15:06:58.859Z,101610.31
2023-04-25T15:09:45.052Z,101608.44
2023-04-25T15:12:30.191Z,101603.66
2023-04-25T15:15:22.791Z,101607.81
2023-04-25T15:18:12.112Z,101591.88
2023-04-25T15:20:57.460Z,101593.94
2023-04-25T15:23:42.626Z,101592.50
2023-04-25T15:26:28.428Z,101590.75
2023-04-25T15:29:13.346Z,101596.75
2023-04-25T15:31:58.514Z,101583.06
2023-04-25T15:34:43.911Z,101585.25
2023-04-25T15:37:28.890Z,101597.75
2023-04-25T15:40:17.576Z,101591.22
2023-04-25T15:43:03.319Z,101601.13
2023-04-25T15:45:48.224Z,101581.50
2023-04-25T15:48:33.509Z,101589.50
2023-04-25T15:51:18.384Z,101588.84
2023-04-25T15:54:04.090Z,101564.94
2023-04-25T15:56:49.323Z,101584.38
2023-04-25T15:59:34.205Z,101587.31
2023-04-25T16:02:19.547Z,101578.59
2023-04-25T16:05:05.196Z,101588.06
2023-04-25T16:07:53.449Z,101584.03
2023-04-25T16:10:38.594Z,101582.69
2023-04-25T16:13:23.784Z,101582.88
2023-04-25T16:16:09.114Z,101590.78
2023-04-25T16:18:54.265Z,101582.81
2023-04-25T16:21:39.223Z,101582.41
2023-04-25T16:24:24.114Z,101583.06
2023-04-25T16:27:09.356Z,101585.78
2023-04-25T16:29:54.530Z,101580.06
2023-04-25T16:32:41.385Z,101578.91
2023-04-25T16:35:30.497Z,101583.25
2023-04-25T16:38:16.607Z,101578.00
2023-04-25T16:41:01.861Z,101580.44
2023-04-25T16:43:47.118Z,101581.06
2023-04-25T16:46:32.304Z,101576.97
2023-04-25T16:49:17.637Z,101580.50
2023-04-25T16:52:03.510Z,101560.22
2023-04-25T16:54:48.738Z,101577.06
2023-04-25T16:57:37.616Z,101572.09
2023-04-25T17:00:23.109Z,101570.81
2023-04-25T17:03:08.669Z,101581.50
2023-04-25T17:05:57.917Z,101572.78
2023-04-25T17:08:43.048Z,101575.31
2023-04-25T17:11:28.080Z,101576.91
2023-04-25T17:14:13.449Z,101569.69
2023-04-25T17:16:58.752Z,101569.06
2023-04-25T17:19:44.389Z,101569.34
2023-04-25T17:22:29.403Z,101559.78
2023-04-25T17:25:14.364Z,101569.47
2023-04-25T17:27:59.201Z,101577.00
2023-04-25T17:30:44.463Z,101578.59
2023-04-25T17:33:29.473Z,101567.59
2023-04-25T17:36:15.028Z,101574.09
2023-04-25T17:39:00.023Z,101546.50
2023-04-25T17:41:45.174Z,101567.97
2023-04-25T17:44:30.530Z,101562.72
2023-04-25T17:47:17.348Z,101572.94
2023-04-25T17:50:02.505Z,101575.19
2023-04-25T17:52:48.426Z,101553.44
2023-04-25T17:55:33.962Z,101576.88
2023-04-25T17:58:19.047Z,101573.50
2023-04-25T18:01:05.486Z,101572.91
2023-04-25T18:03:51.654Z,101571.78
2023-04-25T18:06:36.883Z,101578.53
2023-04-25T18:09:23.427Z,101579.66
2023-04-25T18:12:09.110Z,101578.88
2023-04-25T18:14:54.261Z,101568.94
2023-04-25T18:17:42.450Z,101574.88
2023-04-25T18:20:28.640Z,101575.16
2023-04-25T18:23:13.713Z,101583.22
2023-04-25T18:25:58.825Z,101567.44
2023-04-25T18:28:44.069Z,101581.38
2023-04-25T18:31:31.895Z,101580.72
2023-04-25T18:34:19.111Z,101587.31
2023-04-25T18:37:04.353Z,101580.06
2023-04-25T18:39:49.691Z,101580.06
2023-04-25T18:42:34.617Z,101572.75
2023-04-25T18:45:19.843Z,101580.66
2023-04-25T18:48:05.189Z,101585.72
2023-04-25T18:50:51.344Z,101587.59
2023-04-25T18:53:37.412Z,101592.47
2023-04-25T18:56:25.473Z,101592.81
2023-04-25T18:59:11.140Z,101594.88
2023-04-25T19:01:56.466Z,101581.44
2023-04-25T19:04:42.721Z,101586.97
2023-04-25T19:07:28.294Z,101593.69
2023-04-25T19:10:13.119Z,101590.53
2023-04-25T19:12:58.233Z,101590.91
2023-04-25T19:15:43.572Z,101593.78
2023-04-25T19:18:28.556Z,101584.03
2023-04-25T19:21:14.656Z,101587.06
2023-04-25T19:24:01.313Z,101583.31
2023-04-25T19:26:46.551Z,101604.91
2023-04-25T19:29:33.155Z,101597.84
2023-04-25T19:32:18.139Z,101603.22
2023-04-25T19:35:07.446Z,101593.22
2023-04-25T19:37:54.003Z,101603.03
2023-04-25T19:40:39.035Z,101607.06
2023-04-25T19:43:24.116Z,101612.44
2023-04-25T19:46:09.592Z,101612.28
2023-04-25T19:48:55.380Z,101610.03
2023-04-25T19:51:40.649Z,101612.38
2023-04-25T19:54:25.885Z,101617.22
2023-04-25T19:57:12.107Z,101598.03
2023-04-25T19:59:57.261Z,101600.84
2023-04-25T20:02:45.312Z,101614.69
2023-04-25T20:05:32.216Z,101598.97
2023-04-25T20:08:17.430Z,101630.31
2023-04-25T20:11:02.874Z,101625.53
2023-04-25T20:13:48.283Z,101635.81
2023-04-25T20:16:33.458Z,101639.75
2023-04-25T20:19:19.145Z,101641.78
2023-04-25T20:22:04.636Z,101640.03
2023-04-25T20:24:50.126Z,101646.94
2023-04-25T20:27:37.769Z,101647.88
2023-04-25T20:30:22.900Z,101649.75
2023-04-25T20:33:09.312Z,101641.34
2023-04-25T20:35:54.784Z,101646.72
2023-04-25T20:38:40.095Z,101644.16
2023-04-25T20:41:25.724Z,101631.00
2023-04-25T20:44:12.330Z,101638.28
2023-04-25T20:46:57.824Z,101640.00
2023-04-25T20:49:42.953Z,101658.69
2023-04-25T20:52:28.119Z,101670.31
2023-04-25T20:55:13.447Z,101660.91
2023-04-25T20:57:58.906Z,101655.97
2023-04-25T21:00:47.371Z,101663.00
2023-04-25T21:03:33.673Z,101669.41
2023-04-25T21:06:19.497Z,101667.69
2023-04-25T21:09:04.942Z,101676.56
2023-04-25T21:11:51.080Z,101658.97
2023-04-25T21:14:36.380Z,101676.34
2023-04-25T21:17:21.616Z,101680.81
2023-04-25T21:20:10.234Z,101682.69
2023-04-25T21:22:55.339Z,101679.50
2023-04-25T21:25:42.137Z,101685.59
2023-04-25T21:28:27.302Z,101679.69
2023-04-25T21:31:12.731Z,101676.31
2023-04-25T21:33:57.956Z,101677.41
2023-04-25T21:36:44.216Z,101683.84
2023-04-25T21:39:29.326Z,101685.84
2023-04-25T21:42:14.346Z,101679.09
2023-04-25T21:45:01.440Z,101684.41
2023-04-25T21:47:47.677Z,101689.88
2023-04-25T21:50:33.460Z,101671.75
2023-04-25T21:53:18.965Z,101666.13
2023-04-25T21:56:04.175Z,101678.19
2023-04-25T21:58:49.968Z,101669.56
2023-04-25T22:01:35.402Z,101650.94
2023-04-25T22:04:21.077Z,101659.59
2023-04-25T22:07:06.405Z,101674.25
2023-04-25T22:09:55.356Z,101670.84
2023-04-25T22:12:41.307Z,101673.69
2023-04-25T22:15:27.041Z,101667.63
2023-04-25T22:18:13.297Z,101663.28
2023-04-25T22:20:58.377Z,101655.53
2023-04-25T22:23:43.311Z,101663.28
2023-04-25T22:26:30.159Z,101671.19
2023-04-25T22:29:15.552Z,101673.00
2023-04-25T22:32:00.496Z,101676.53
2023-04-25T22:34:46.672Z,101676.56
2023-04-25T22:37:32.051Z,101664.91
2023-04-25T22:40:18.178Z,101667.56
2023-04-25T22:43:03.185Z,101684.66
2023-04-25T22:45:48.733Z,101688.06
2023-04-25T22:48:33.773Z,101677.72
2023-04-25T22:51:18.965Z,101682.97
2023-04-25T22:54:05.373Z,101691.72
2023-04-25T22:56:51.031Z,101674.84
2023-04-25T22:59:38.729Z,101686.09
2023-04-25T23:02:24.947Z,101667.50
2023-04-25T23:05:10.064Z,101684.72
2023-04-25T23:07:55.056Z,101685.72
2023-04-25T23:10:40.430Z,101683.09
2023-04-25T23:13:25.771Z,101675.44
2023-04-25T23:16:11.215Z,101684.91
2023-04-25T23:18:56.649Z,101679.91
2023-04-25T23:21:44.323Z,101688.34
2023-04-25T23:24:29.476Z,101685.72
2023-04-25T23:27:14.254Z,101682.41
2023-04-25T23:29:59.181Z,101694.44
2023-04-25T23:32:44.605Z,101695.47
2023-04-25T23:35:29.903Z,101699.09
2023-04-25T23:38:16.438Z,101691.38
2023-04-25T23:41:01.609Z,101693.22
2023-04-25T23:43:46.617Z,101697.69
2023-04-25T23:46:31.881Z,101698.59
2023-04-25T23:49:17.023Z,101688.34
2023-04-25T23:52:03.766Z,101681.53
2023-04-25T23:54:48.765Z,101688.56
2023-04-25T23:57:34.094Z,101668.88
